x

Orange Beach - 44 Nm Se Of Mobile, Al (42012) Wave Buoy

4:50pm - Fri 24th Oct 2014 All times are CDT. -5 hours from GMT.

  • Sig Wave height 1.3ft
  • Swell Direction
  • Peak Period 7s
  • Average Period 5s
  • Wind
    4mph, 7mph gusts
  • Sea Temp 78°f
  • Air Temp 73°f
  • Sea Pressure 1015.6mb
  • Orange Beach - 44 Nm Se Of Mobile, Al
  • Orange Beach - 44 Nm Se Of Mobile, Al

More Historic Weather Station data

Upgrade to MSW Pro to gain access to the past 30 days of data for over 8000 Wavebouys and Weather Stations around the globe.

Join Pro

Comparision Forecast

View Surf forecast
   
Fri 10/24 4:50pm 1.3ft 7s 5s 4 7 mph 1015.6mb 78f 73f
3:50pm 1.6ft 7s 5s 7 11 mph 1015.9mb 78f 71f
2:50pm 1.6ft 7s 5s 7 9 mph 1015.7mb 78f 71f
1:50pm 1.6ft 6s 4s 4 7 mph 1016.2mb 78f 71f
12:50pm 1.6ft 7s 4s 4 7 mph 1017.2mb 78f 69f
11:50am 2ft 7s 4s 7 9 mph 1017.9mb 78f 69f
10:50am 2ft 7s 4s 9 11 mph 1018.4mb 78f 68f
9:50am 2.5ft 8s 4s 11 13 mph 1018.2mb 78f 67f
8:50am 2.5ft 3s 4s 16 18 mph 1018.2mb 78f 65f
7:50am 2.5ft 4s 4s 16 18 mph 1017.6mb 78f 68f
6:50am 2.5ft 8s 4s 16 18 mph 1017.3mb 78f 67f
5:50am 2ft 8s 4s 16 20 mph 1017.1mb 78f 67f
4:50am 2.5ft 3s 4s 16 18 mph 1016.7mb 78f 68f
3:50am 2ft 3s 4s 16 18 mph 1016.4mb 78f 68f
2:50am 2.5ft 3s 4s 13 16 mph 1016.6mb 78f 70f
1:50am 2ft 6s 4s 16 18 mph 1016.7mb 78f 70f
12:50am 2ft 6s 4s 18 20 mph 1016.8mb 78f 70f
Thu 10/23 11:50pm 1.6ft 5s 4s 13 16 mph 1016.9mb 78f 71f
10:50pm 1.6ft 5s 5s 9 11 mph 1017.2mb 78f 71f
9:50pm 1.6ft 5s 5s 7 9 mph 1017.5mb 78f 72f
8:50pm 2ft 5s 5s 4 7 mph 1017.3mb 78f 71f
7:50pm 2ft 5s 5s 4 7 mph 1016.9mb 78f 71f
6:50pm 2ft 5s 5s 4
mph
1016.8mb 78f 71f
5:50pm 2.5ft 5s 4s 2 4 mph 1016.5mb 78f 71f
4:50pm 2.5ft 6s 4s 7 9 mph 1016.2mb 78f 71f
3:50pm 2.5ft 6s 4s 9 11 mph 1016.4mb 78f 70f
2:50pm 3ft 6s 5s 7 11 mph 1016.9mb 78f 69f
1:50pm 2.5ft 5s 4s 9 13 mph 1017.2mb 78f 69f
12:50pm 3ft 6s 4s 13 18 mph 1017.8mb 78f 69f
11:50am 3ft 5s 4s 13 16 mph 1018.5mb 78f 68f
10:50am 3ft 5s 4s 13 18 mph 1018.8mb 78f 68f
9:50am 3ft 4s 4s 16 20 mph 1018.5mb 78f 67f
8:50am 2.5ft 5s 4s 16 20 mph 1018.2mb 78f 67f
7:50am 2.5ft 4s 4s 18 22 mph 1017.5mb 78f 67f
6:50am 3ft 5s 4s 18 22 mph 1017.3mb 78f 65f
5:50am 2.5ft 5s 4s 18 20 mph 1017.1mb 78f 66f
4:50am 3ft 5s 4s 18 22 mph 1016.6mb 78f 67f
3:50am 3ft 5s 4s 18 20 mph 1016.4mb 78f 67f
2:50am 3.5ft 5s 4s 18 22 mph 1016.4mb 78f 68f
1:50am 3.5ft 5s 4s 20 25 mph 1016.6mb 78f 70f
12:50am 3ft 5s 4s 18 22 mph 1016.9mb 78f 69f
Wed 10/22 11:50pm 2.5ft 4s 4s 20 22 mph 1017.3mb 78f 70f
10:50pm 2.5ft 4s 4s 20 25 mph 1017.8mb 78f 71f
9:50pm 2.5ft 4s 3s 20 25 mph 1017.6mb 78f 72f
8:50pm 2ft 3s 3s 20 22 mph 1017.2mb 78f 73f
7:50pm 1.6ft 4s 3s 20 22 mph 1016.6mb 78f 75f
6:50pm 1.6ft 4s 3s 16 18 mph 1016mb 78f 76f
5:50pm 1.6ft 5s 4s 16 18 mph 1015.6mb 79f 76f
4:50pm 1.6ft 5s 4s 7 11 mph 1015.6mb 79f 76f
3:50pm 2ft 5s 4s 9 11 mph 1015.7mb 79f 74f
2:50pm 2ft 5s 4s 9 11 mph 1016.1mb 79f 74f
1:50pm 2ft 5s 4s 9 11 mph 1016.6mb 78f 73f
12:50pm 2.5ft 4s 4s 16 18 mph 1017.2mb 78f 72f
11:50am 2.5ft 5s 4s 16 18 mph 1017.9mb 78f 71f
10:50am 2.5ft 4s 4s 18 22 mph 1018.2mb 78f 71f
9:50am 2.5ft 4s 4s 18 22 mph 1017.8mb 78f 72f
8:50am 2.5ft 4s 3s 18 22 mph 1017.4mb 78f 71f
7:50am 2.5ft 4s 3s 18 20 mph 1016.8mb 78f 72f
6:50am 2ft 3s 3s 18 20 mph 1016.2mb 78f 71f
5:50am 2ft 3s 3s 18 20 mph 1015.7mb 78f 72f
4:50am 1.6ft 3s 3s 18 20 mph 1015.3mb 78f 73f
3:50am 1.3ft 3s 3s 13 16 mph 1015.3mb 78f 74f
2:50am 1.3ft 3s 3s 16 18 mph 1015.2mb 78f 74f
1:50am 1.3ft 3s 3s 16 18 mph 1015.2mb 78f 74f
12:50am 1.3ft 3s 3s 16 18 mph 1015.4mb 78f 75f
Tue 10/21 11:50pm 1.3ft 2s 3s 16 18 mph 1015.6mb 78f 75f
10:50pm 1ft 5s 3s 13 18 mph 1016.1mb 78f 75f
9:50pm 1ft 5s 4s 16 18 mph 1015.8mb 78f 76f
8:50pm 1ft 5s 4s 9 11 mph 1015.4mb 78f 76f
7:50pm 1ft 5s 4s 7 9 mph 1014.8mb 78f 75f
6:50pm 1ft 5s 4s 4
mph
1014.4mb 78f 74f
5:50pm 1ft 4s 4s 4 7 mph 1014.2mb 79f 75f
4:50pm 1.3ft 4s 4s  -  2 mph 1014.3mb 79f 76f
3:50pm 1.3ft 4s 4s 4
mph
1014.4mb 79f 74f
2:50pm 1.3ft 4s 4s 4
mph
1014.8mb 79f 74f
1:50pm 1.3ft 4s 3s 4 9 mph 1015.3mb 78f 73f
12:50pm 1.6ft 4s 3s 9 13 mph 1016mb 78f 72f
11:50am 1.6ft 4s 3s 11 13 mph 1016.8mb 78f 71f
10:50am 2ft 3s 3s 13 16 mph 1017mb 78f 71f
9:50am 1.6ft 4s 3s 16 20 mph 1016.8mb 78f 71f
8:50am 1.6ft 3s 3s 16 18 mph 1016.7mb 78f 70f
7:50am 1.6ft 3s 3s 16 18 mph 1016.3mb 78f 71f
6:50am 1.6ft 3s 3s 13 16 mph 1015.9mb 78f 71f
5:50am 1.3ft 3s 3s 13 16 mph 1015.4mb 78f 72f
4:50am 1ft 3s 3s 13 16 mph 1015.1mb 78f 72f
3:50am 1ft 3s 3s 11 13 mph 1014.9mb 78f 72f
2:50am 1ft 3s 3s 11 13 mph 1015.1mb 78f 73f
1:50am 1.3ft 3s 3s 11 13 mph 1015.3mb 78f 73f
12:50am 1ft 2s 3s 13 16 mph 1015.5mb 78f 73f
Mon 10/20 11:50pm 1ft 2s 3s 11 13 mph 1015.4mb 78f 73f